createdAt,value
2019-04-19T04:39:34.168Z,65.74
2019-04-19T04:40:37.827Z,65.64
2019-04-19T04:41:34.419Z,65.74
2019-04-19T04:42:40.480Z,66.02
2019-04-19T04:43:44.668Z,66.31
2019-04-19T04:45:02.074Z,65.83
2019-04-19T04:46:04.834Z,66.60
2019-04-19T04:46:57.702Z,66.31
2019-04-19T04:47:50.387Z,66.60
2019-04-19T04:48:55.266Z,66.22
2019-04-19T04:49:55.114Z,66.22
2019-04-19T04:50:59.042Z,66.41
2019-04-19T04:51:49.520Z,66.78
2019-04-19T04:52:37.729Z,66.31
2019-04-19T04:53:34.117Z,65.93
2019-04-19T04:54:33.430Z,65.58
2019-04-19T04:55:36.092Z,65.55
2019-04-19T04:56:45.762Z,65.87
2019-04-19T04:57:44.942Z,65.87
2019-04-19T04:58:38.541Z,65.83
2019-04-19T04:59:35.022Z,65.93
2019-04-19T05:00:41.040Z,65.93
2019-04-19T05:01:45.261Z,65.64
2019-04-19T05:02:45.122Z,66.22
2019-04-19T05:03:51.173Z,65.93
2019-04-19T05:04:46.254Z,65.87
2019-04-19T05:05:50.027Z,65.58
2019-04-19T05:06:55.181Z,65.67
2019-04-19T05:07:52.956Z,65.30
2019-04-19T05:08:50.333Z,65.58
2019-04-19T05:10:50.449Z,65.58
2019-04-19T05:11:59.076Z,65.67
2019-04-19T05:13:18.665Z,65.67
2019-04-19T05:13:51.408Z,65.87
2019-04-19T05:14:49.169Z,65.58
2019-04-19T05:15:52.903Z,65.96
2019-04-19T05:17:00.141Z,65.67
2019-04-19T05:17:58.305Z,65.87
2019-04-19T05:18:52.719Z,66.44
2019-04-19T05:19:56.396Z,66.44
2019-04-19T05:20:48.089Z,65.87
2019-04-19T05:21:44.580Z,65.58
2019-04-19T05:22:55.453Z,65.87
2019-04-19T05:23:56.851Z,65.48
2019-04-19T05:24:56.435Z,65.67
2019-04-19T05:25:51.982Z,65.77
2019-04-19T05:27:04.640Z,65.39
2019-04-19T05:27:52.288Z,65.20
2019-04-19T05:28:48.901Z,65.77
2019-04-19T05:29:40.938Z,65.01
2019-04-19T05:30:41.129Z,64.72
2019-04-19T05:31:39.663Z,64.28
2019-04-19T05:32:35.837Z,63.99
2019-04-19T05:33:47.227Z,64.47
2019-04-19T05:34:53.682Z,64.75
2019-04-19T05:35:53.863Z,64.85
2019-04-19T05:36:50.142Z,64.47
2019-04-19T05:37:54.064Z,63.99
2019-04-19T05:38:57.345Z,63.42
2019-04-19T05:39:54.329Z,63.64
2019-04-19T05:40:48.943Z,62.78
2019-04-19T05:41:51.702Z,63.07
2019-04-19T05:42:49.140Z,63.42
2019-04-19T05:44:04.638Z,63.51
2019-04-19T05:45:03.255Z,63.99
2019-04-19T05:45:57.949Z,63.07
2019-04-19T05:46:53.535Z,63.07
2019-04-19T05:47:43.903Z,62.97
2019-04-19T05:48:42.090Z,62.97
2019-04-19T05:49:52.439Z,63.16
2019-04-19T05:50:57.556Z,62.97
2019-04-19T05:51:53.998Z,62.97
2019-04-19T05:52:47.407Z,62.68
2019-04-19T05:53:44.215Z,62.30
2019-04-19T05:54:32.864Z,62.40
2019-04-19T05:55:45.634Z,63.07
2019-04-19T05:58:55.886Z,61.85
2019-04-19T05:59:49.910Z,62.24
2019-04-19T06:01:59.325Z,62.04
2019-04-19T06:03:48.476Z,61.95
2019-04-19T06:05:58.341Z,62.14
2019-04-19T06:06:52.817Z,61.85
2019-04-19T06:07:47.707Z,61.57
2019-04-19T06:08:34.845Z,61.47
2019-04-19T06:10:36.967Z,61.95
2019-04-19T06:11:35.739Z,61.38
2019-04-19T06:12:34.428Z,61.28
2019-04-19T06:13:32.005Z,61.66
2019-04-19T06:14:56.792Z,62.14
2019-04-19T06:15:54.354Z,61.57
2019-04-19T06:16:46.630Z,61.57
2019-04-19T06:17:50.853Z,61.28
2019-04-19T06:18:43.259Z,61.28
2019-04-19T06:19:46.995Z,62.04
2019-04-19T06:20:50.113Z,61.66
2019-04-19T06:21:46.314Z,61.85
2019-04-19T06:22:51.538Z,61.85
2019-04-19T06:23:53.604Z,62.14
2019-04-19T06:26:20.114Z,61.66
2019-04-19T06:30:03.641Z,61.69
2019-04-19T06:31:58.362Z,62.04
2019-04-19T06:34:44.300Z,61.51
2019-04-19T06:35:40.661Z,61.98
2019-04-19T06:37:34.173Z,63.03
2019-04-19T06:38:35.452Z,62.84
2019-04-19T06:39:31.690Z,62.46
2019-04-19T06:40:34.651Z,61.98
2019-04-19T06:41:37.796Z,62.08
2019-04-19T06:42:41.312Z,62.08
2019-04-19T06:44:57.250Z,63.03
2019-04-19T06:45:49.179Z,63.13
2019-04-19T06:46:54.819Z,62.74
2019-04-19T06:48:51.008Z,62.65
2019-04-19T06:49:40.689Z,62.65
2019-04-19T06:50:42.968Z,62.55
2019-04-19T06:51:48.493Z,62.68
2019-04-19T06:52:41.191Z,62.27
2019-04-19T06:53:46.177Z,62.65
2019-04-19T06:54:42.903Z,62.68
2019-04-19T06:55:47.233Z,63.54
2019-04-19T06:56:42.205Z,63.16
2019-04-19T06:57:51.482Z,63.26
2019-04-19T06:58:50.273Z,63.35
2019-04-19T06:59:54.963Z,63.45
2019-04-19T07:00:54.532Z,63.93
2019-04-19T07:01:48.724Z,63.06
2019-04-19T07:02:39.803Z,63.16
2019-04-19T07:03:40.634Z,62.97
2019-04-19T07:04:52.218Z,62.87
2019-04-19T07:05:50.986Z,63.06
2019-04-19T07:06:58.435Z,62.81
2019-04-19T07:08:04.472Z,62.81
2019-04-19T07:10:08.108Z,62.81
2019-04-19T07:11:01.351Z,62.71
2019-04-19T07:12:02.213Z,62.71
2019-04-19T07:12:55.312Z,62.52
2019-04-19T07:13:51.903Z,62.23
2019-04-19T07:14:57.033Z,61.94
2019-04-19T07:19:57.448Z,61.31
2019-04-19T07:22:46.448Z,61.31
2019-04-19T07:23:49.901Z,61.31
2019-04-19T07:24:50.788Z,61.40
2019-04-19T07:25:47.750Z,61.50
2019-04-19T07:26:47.065Z,61.69
2019-04-19T07:27:40.431Z,61.60
2019-04-19T07:28:32.048Z,61.21
2019-04-19T07:29:28.396Z,61.21
2019-04-19T07:30:28.789Z,61.11
2019-04-19T07:31:28.138Z,61.31
2019-04-19T07:32:36.161Z,61.53
2019-04-19T07:33:41.485Z,61.15
2019-04-19T07:34:45.310Z,61.05
2019-04-19T07:35:52.790Z,61.15
2019-04-19T07:36:44.440Z,61.34
2019-04-19T07:37:39.757Z,60.47
2019-04-19T07:38:46.168Z,60.47
2019-04-19T07:39:55.359Z,59.90
2019-04-19T07:40:48.945Z,59.80
2019-04-19T07:41:49.443Z,59.80
2019-04-19T07:42:45.634Z,60.50
2019-04-19T07:43:43.571Z,60.60
2019-04-19T07:44:37.614Z,60.70
2019-04-19T07:45:39.775Z,60.50
2019-04-19T07:46:45.506Z,60.12
2019-04-19T07:47:39.368Z,60.12
2019-04-19T07:48:29.133Z,60.12
2019-04-19T07:49:29.311Z,60.60
2019-04-19T07:50:39.681Z,60.60
2019-04-19T07:51:33.530Z,60.41
2019-04-19T07:52:40.449Z,60.70
2019-04-19T07:53:32.029Z,60.53
2019-04-19T07:54:30.755Z,60.53
2019-04-19T07:55:33.427Z,60.82
2019-04-19T07:56:39.064Z,59.67
2019-04-19T07:58:06.999Z,59.19
2019-04-19T07:58:52.460Z,59.09
2019-04-19T08:02:01.457Z,58.91
2019-04-19T08:02:54.867Z,58.81
2019-04-19T08:04:12.033Z,58.62
2019-04-19T08:05:04.663Z,58.81
2019-04-19T08:07:01.511Z,58.91
2019-04-19T08:08:57.074Z,58.07
2019-04-19T08:11:02.310Z,58.14
2019-04-19T08:12:05.255Z,57.78
2019-04-19T08:12:53.800Z,58.74
2019-04-19T08:13:58.051Z,58.45
2019-04-19T08:17:29.131Z,58.10
2019-04-19T08:17:51.827Z,57.62
2019-04-19T08:27:33.847Z,48.71
2019-04-19T08:28:33.401Z,48.57
2019-04-19T08:29:35.378Z,46.34
2019-04-19T08:30:34.823Z,45.92
2019-04-19T08:31:27.354Z,46.33
2019-04-19T08:32:26.424Z,46.08
2019-04-19T08:33:27.554Z,46.15
2019-04-19T08:34:28.274Z,46.85
2019-04-19T08:35:27.573Z,46.42
2019-04-19T08:36:33.094Z,46.61
2019-04-19T08:37:32.633Z,46.47
2019-04-19T08:38:29.562Z,47.72
2019-04-19T08:39:52.750Z,48.64
2019-04-19T08:41:21.502Z,45.98
2019-04-19T08:42:30.844Z,45.01
2019-04-19T08:43:25.504Z,45.00
2019-04-19T08:44:21.676Z,44.97
2019-04-19T08:45:15.205Z,46.23
2019-04-19T08:46:11.345Z,46.15
2019-04-19T08:47:21.652Z,46.37
2019-04-19T08:48:16.947Z,44.82
2019-04-19T08:49:13.053Z,44.21
2019-04-19T08:50:12.646Z,43.30
2019-04-19T08:51:10.588Z,43.40
2019-04-19T08:52:16.050Z,43.30
2019-04-19T08:53:27.130Z,43.15
2019-04-19T08:54:31.843Z,43.61
2019-04-19T08:55:33.337Z,43.82
2019-04-19T08:56:23.095Z,43.63
2019-04-19T08:57:15.660Z,43.61
2019-04-19T08:58:29.723Z,43.44
2019-04-19T08:59:34.933Z,42.41
2019-04-19T09:00:41.032Z,41.93
2019-04-19T09:01:33.062Z,41.82
2019-04-19T09:02:28.639Z,42.30
2019-04-19T09:03:37.457Z,41.42
2019-04-19T09:04:33.232Z,41.70
2019-04-19T09:05:28.533Z,42.71
2019-04-19T09:07:08.361Z,41.49
2019-04-19T09:08:34.726Z,41.10
2019-04-19T09:09:31.205Z,40.23
2019-04-19T09:10:36.908Z,39.72
2019-04-19T09:11:24.793Z,41.06
2019-04-19T09:12:27.647Z,41.31
2019-04-19T09:13:35.345Z,42.08
2019-04-19T09:14:27.605Z,41.89
2019-04-19T09:15:24.032Z,41.74
2019-04-19T09:16:26.503Z,40.99
2019-04-19T09:17:43.399Z,40.52
2019-04-19T09:18:44.180Z,40.31
2019-04-19T09:19:44.512Z,40.33
2019-04-19T09:20:30.353Z,40.34
2019-04-19T09:21:27.467Z,39.61
2019-04-19T09:22:30.663Z,38.64
2019-04-19T09:23:26.019Z,39.36
2019-04-19T09:24:16.939Z,39.43
2019-04-19T09:25:24.527Z,39.53
2019-04-19T09:26:30.746Z,40.75
2019-04-19T09:27:39.032Z,41.16
2019-04-19T09:28:41.957Z,41.16
2019-04-19T09:29:35.494Z,41.08
2019-04-19T09:30:27.731Z,42.14
2019-04-19T09:31:26.653Z,41.76
2019-04-19T09:32:18.637Z,41.37
2019-04-19T09:33:20.295Z,41.86
2019-04-19T09:34:16.281Z,41.00
2019-04-19T09:35:12.771Z,40.99
2019-04-19T09:36:14.245Z,40.99
2019-04-19T09:37:21.201Z,41.30
2019-04-19T09:38:21.690Z,41.00
2019-04-19T09:39:29.261Z,41.45
2019-04-19T09:40:16.115Z,41.39
2019-04-19T09:41:20.584Z,40.85
2019-04-19T09:42:21.709Z,40.15
2019-04-19T09:43:24.049Z,39.20
2019-04-19T09:44:19.512Z,38.50
2019-04-19T09:45:12.500Z,38.58
2019-04-19T09:46:12.398Z,39.43
2019-04-19T09:47:12.137Z,40.96
2019-04-19T09:48:31.626Z,41.06
2019-04-19T09:49:23.193Z,40.92
2019-04-19T09:50:29.736Z,40.40
2019-04-19T09:51:27.912Z,40.50
2019-04-19T09:52:39.328Z,39.82
2019-04-19T09:53:38.713Z,40.28
2019-04-19T09:54:32.579Z,40.69
2019-04-19T09:55:33.209Z,40.86
2019-04-19T09:56:27.713Z,41.16
2019-04-19T09:57:33.453Z,41.16
2019-04-19T09:58:34.341Z,41.04
2019-04-19T09:59:21.357Z,41.70
2019-04-19T10:00:17.467Z,41.35
2019-04-19T10:01:12.565Z,40.96
2019-04-19T10:02:19.872Z,40.50
2019-04-19T10:03:24.520Z,40.31
2019-04-19T10:04:12.613Z,40.40
2019-04-19T10:05:12.583Z,39.94
2019-04-19T10:06:12.909Z,38.79
2019-04-19T10:07:11.680Z,38.42
2019-04-19T10:08:11.686Z,38.78
2019-04-19T10:09:16.354Z,38.79
2019-04-19T10:10:14.439Z,39.74
2019-04-19T10:11:12.608Z,39.49
2019-04-19T10:12:11.743Z,38.91
2019-04-19T10:13:11.975Z,39.16
2019-04-19T10:14:13.273Z,39.86
2019-04-19T10:15:11.887Z,39.03
2019-04-19T10:16:12.465Z,38.96
2019-04-19T10:17:12.665Z,39.14
2019-04-19T10:18:12.539Z,38.96
2019-04-19T10:19:13.126Z,38.25
2019-04-19T10:20:12.881Z,37.96
2019-04-19T10:21:19.052Z,37.87
2019-04-19T10:22:12.364Z,37.48
2019-04-19T10:23:13.233Z,37.46
2019-04-19T10:24:14.837Z,38.33
2019-04-19T10:25:11.928Z,38.06
2019-04-19T10:26:13.865Z,37.13
2019-04-19T10:27:12.790Z,35.90
2019-04-19T10:28:12.002Z,34.16
2019-04-19T10:29:19.758Z,35.09
2019-04-19T10:30:12.681Z,35.57
2019-04-19T10:31:12.011Z,35.27
2019-04-19T10:32:12.647Z,36.00
2019-04-19T10:33:12.039Z,37.07
2019-04-19T10:34:12.301Z,37.55
2019-04-19T10:35:13.401Z,37.40
2019-04-19T10:36:12.734Z,36.06
2019-04-19T10:37:13.315Z,36.08
2019-04-19T10:38:12.106Z,35.36
2019-04-19T10:39:12.118Z,35.75
2019-04-19T10:40:13.242Z,35.83
2019-04-19T10:41:13.555Z,36.00
2019-04-19T10:42:12.360Z,36.40
2019-04-19T10:43:12.170Z,36.08
2019-04-19T10:44:16.561Z,36.57
2019-04-19T10:45:12.375Z,36.26
2019-04-19T10:46:13.116Z,36.07
2019-04-19T10:47:12.563Z,35.89
2019-04-19T10:48:12.230Z,36.78
2019-04-19T10:49:17.438Z,36.40
2019-04-19T10:50:26.222Z,36.68
2019-04-19T10:51:12.306Z,36.47
2019-04-19T10:52:13.096Z,36.20
2019-04-19T10:53:12.363Z,36.16
2019-04-19T10:54:12.733Z,36.08
2019-04-19T10:55:12.310Z,36.26
2019-04-19T10:56:12.319Z,36.08
2019-04-19T10:57:12.505Z,35.52
2019-04-19T10:58:12.340Z,36.22
2019-04-19T10:59:12.350Z,35.64
2019-04-19T11:00:13.327Z,34.78
2019-04-19T11:01:13.453Z,35.17
2019-04-19T11:02:13.726Z,35.04
2019-04-19T11:03:12.810Z,35.49
2019-04-19T11:04:13.016Z,35.78
2019-04-19T11:05:12.408Z,35.88
2019-04-19T11:06:12.571Z,35.95
2019-04-19T11:07:13.676Z,36.94
2019-04-19T11:08:12.714Z,36.74
2019-04-19T11:09:12.448Z,37.71
2019-04-19T11:10:13.577Z,37.71
2019-04-19T11:11:13.757Z,36.55
2019-04-19T11:12:13.440Z,36.84
2019-04-19T11:13:12.843Z,37.70
2019-04-19T11:14:12.496Z,37.88
2019-04-19T11:15:12.937Z,38.08
2019-04-19T11:16:12.511Z,37.77
2019-04-19T11:17:13.715Z,37.88
2019-04-19T11:18:13.860Z,37.88
2019-04-19T11:19:19.275Z,37.40
2019-04-19T11:20:22.854Z,37.32
2019-04-19T11:21:13.399Z,37.13
2019-04-19T11:22:13.848Z,37.42
2019-04-19T11:23:13.535Z,37.04
2019-04-19T11:24:13.697Z,37.13
2019-04-19T11:25:12.581Z,37.21
2019-04-19T11:26:12.682Z,38.37
2019-04-19T11:27:13.203Z,37.90
2019-04-19T11:28:13.352Z,36.76
2019-04-19T11:29:13.460Z,37.04
2019-04-19T11:30:15.302Z,37.24
2019-04-19T11:31:17.637Z,37.52
2019-04-19T11:32:12.628Z,36.94
2019-04-19T11:33:12.809Z,36.84
2019-04-19T11:34:13.160Z,36.94
2019-04-19T11:35:13.728Z,37.60
2019-04-19T11:36:13.281Z,38.76
2019-04-19T11:37:14.118Z,38.76
2019-04-19T11:38:13.294Z,38.76
2019-04-19T11:39:12.748Z,38.18
2019-04-19T11:40:13.203Z,38.08
2019-04-19T11:41:13.327Z,38.37
2019-04-19T11:42:12.936Z,36.36
2019-04-19T11:43:13.470Z,36.46
2019-04-19T11:44:19.085Z,37.30
2019-04-19T11:45:12.715Z,37.52
2019-04-19T11:46:13.674Z,36.63
2019-04-19T11:47:13.266Z,36.03
2019-04-19T11:48:12.987Z,35.84
2019-04-19T11:49:23.797Z,36.42
2019-04-19T11:50:13.812Z,36.13
2019-04-19T11:51:13.911Z,36.71
2019-04-19T11:52:13.854Z,36.61
2019-04-19T11:53:12.757Z,36.92
2019-04-19T11:54:12.762Z,37.12
2019-04-19T11:55:12.806Z,37.40
2019-04-19T11:56:12.772Z,36.34
2019-04-19T11:57:12.778Z,36.63
2019-04-19T11:58:12.782Z,36.24
2019-04-19T11:59:12.787Z,36.15
2019-04-19T12:00:13.615Z,36.05
2019-04-19T12:01:14.065Z,35.95
2019-04-19T12:02:13.351Z,36.15
2019-04-19T12:03:13.912Z,36.24
2019-04-19T12:04:12.833Z,36.53
2019-04-19T12:05:19.510Z,36.05
2019-04-19T12:06:14.196Z,36.82
2019-04-19T12:07:12.834Z,37.12
2019-04-19T12:08:12.837Z,36.65
2019-04-19T12:09:12.842Z,36.15
2019-04-19T12:10:12.847Z,36.36
2019-04-19T12:11:12.850Z,36.24
2019-04-19T12:12:12.942Z,36.05
2019-04-19T12:13:13.038Z,35.28
2019-04-19T12:14:14.137Z,35.58
2019-04-19T12:15:13.837Z,35.58
2019-04-19T12:16:13.016Z,36.55
2019-04-19T12:17:13.281Z,36.16
2019-04-19T12:18:12.886Z,37.04
2019-04-19T12:19:13.966Z,35.68
2019-04-19T12:20:13.170Z,35.58
2019-04-19T12:21:13.497Z,35.49
2019-04-19T12:22:13.041Z,35.68
2019-04-19T12:23:13.791Z,35.68
2019-04-19T12:24:12.929Z,35.78
2019-04-19T12:25:12.922Z,36.07
2019-04-19T12:26:13.750Z,35.97
2019-04-19T12:27:13.801Z,35.78
2019-04-19T12:28:12.936Z,36.46
2019-04-19T12:29:25.493Z,35.68
2019-04-19T12:30:13.582Z,35.29
2019-04-19T12:31:13.638Z,36.18
2019-04-19T12:32:12.955Z,35.99
2019-04-19T12:33:13.275Z,35.31
2019-04-19T12:34:14.471Z,36.08
2019-04-19T12:35:13.054Z,35.89
2019-04-19T12:36:12.975Z,36.18
2019-04-19T12:37:13.341Z,36.08
2019-04-19T12:38:14.310Z,36.57
2019-04-19T12:39:12.995Z,35.39
2019-04-19T12:40:12.995Z,35.97
2019-04-19T12:41:14.210Z,35.97
2019-04-19T12:42:13.507Z,36.24
2019-04-19T12:43:13.905Z,36.07
2019-04-19T12:44:13.261Z,35.88
2019-04-19T12:45:13.592Z,35.95
2019-04-19T12:46:13.044Z,36.53
2019-04-19T12:47:13.121Z,35.95
2019-04-19T12:48:13.963Z,36.05
2019-04-19T12:49:14.298Z,36.72
2019-04-19T12:50:14.321Z,36.84
2019-04-19T12:51:14.140Z,36.63
2019-04-19T12:52:13.056Z,36.53
2019-04-19T12:53:13.058Z,36.63
2019-04-19T12:54:14.068Z,36.34
2019-04-19T12:55:14.317Z,36.84
2019-04-19T12:56:13.949Z,36.36
2019-04-19T12:57:14.043Z,36.47
2019-04-19T12:58:14.232Z,36.28
2019-04-19T12:59:13.860Z,36.76
2019-04-19T13:00:14.193Z,36.76
2019-04-19T13:01:14.116Z,36.18
2019-04-19T13:02:13.759Z,36.07
2019-04-19T13:03:13.903Z,35.88
2019-04-19T13:04:13.136Z,36.28
2019-04-19T13:05:14.132Z,35.60
2019-04-19T13:06:13.419Z,35.31
2019-04-19T13:07:13.174Z,35.58
2019-04-19T13:08:13.132Z,35.29
2019-04-19T13:09:13.135Z,35.78
2019-04-19T13:10:13.211Z,35.60
2019-04-19T13:11:13.144Z,35.50
2019-04-19T13:12:13.158Z,36.08
2019-04-19T13:13:14.023Z,36.96
2019-04-19T13:14:13.159Z,35.89
2019-04-19T13:15:13.693Z,35.70
2019-04-19T13:16:14.399Z,35.02
2019-04-19T13:17:13.173Z,35.60
2019-04-19T13:18:14.211Z,35.70
2019-04-19T13:19:14.131Z,35.60
2019-04-19T13:20:20.549Z,35.41
2019-04-19T13:21:13.846Z,35.21
2019-04-19T13:22:14.448Z,35.02
2019-04-19T13:23:14.508Z,35.80
2019-04-19T13:24:14.119Z,35.89
2019-04-19T13:25:15.141Z,35.21
2019-04-19T13:26:13.548Z,34.92
2019-04-19T13:27:13.220Z,34.83
2019-04-19T13:28:13.360Z,34.84
2019-04-19T13:29:13.429Z,34.65
2019-04-19T13:30:22.535Z,34.36
2019-04-19T13:31:14.054Z,34.83
2019-04-19T13:32:13.537Z,35.70
2019-04-19T13:33:14.367Z,35.52
2019-04-19T13:34:13.457Z,34.83
2019-04-19T13:35:13.262Z,35.21
2019-04-19T13:36:13.302Z,35.60
2019-04-19T13:37:13.378Z,36.00
2019-04-19T13:38:13.277Z,35.81
2019-04-19T13:39:13.312Z,35.23
2019-04-19T13:40:14.374Z,34.84
2019-04-19T13:41:14.496Z,35.52
2019-04-19T13:42:13.325Z,35.42
2019-04-19T13:43:13.312Z,34.25
2019-04-19T13:44:14.600Z,33.86
2019-04-19T13:45:19.762Z,34.45
2019-04-19T13:46:13.315Z,34.27
2019-04-19T13:47:13.321Z,34.84
2019-04-19T13:48:14.479Z,34.45
2019-04-19T13:49:14.605Z,33.87
2019-04-19T13:50:22.034Z,33.29
2019-04-19T13:51:14.317Z,34.07
2019-04-19T13:52:14.480Z,34.07
2019-04-19T13:53:13.352Z,34.47
2019-04-19T13:54:14.543Z,34.55
2019-04-19T13:55:14.720Z,33.49
2019-04-19T13:56:13.367Z,34.57
2019-04-19T13:57:13.450Z,33.49
2019-04-19T13:58:13.771Z,33.59
2019-04-19T13:59:14.241Z,34.17
2019-04-19T14:00:13.486Z,33.97
2019-04-19T14:01:14.350Z,33.78
2019-04-19T14:02:14.525Z,33.60
2019-04-19T14:03:13.769Z,33.31
2019-04-19T14:04:13.559Z,33.31
2019-04-19T14:05:13.583Z,33.89
2019-04-19T14:06:14.665Z,34.77
2019-04-19T14:07:13.424Z,34.77
2019-04-19T14:08:13.433Z,35.05
2019-04-19T14:09:13.463Z,34.77
2019-04-19T14:10:13.442Z,34.96
2019-04-19T14:11:13.447Z,35.15
2019-04-19T14:12:13.495Z,34.86
2019-04-19T14:13:14.788Z,34.59
2019-04-19T14:14:14.117Z,33.52
2019-04-19T14:15:13.469Z,33.60
2019-04-19T14:16:14.536Z,33.60
2019-04-19T14:17:13.762Z,34.28
2019-04-19T14:18:13.489Z,33.41
2019-04-19T14:19:13.535Z,33.51
2019-04-19T14:20:25.583Z,33.22
2019-04-19T14:21:14.798Z,33.29
2019-04-19T14:22:13.554Z,34.17
2019-04-19T14:23:13.512Z,33.78
2019-04-19T14:24:13.614Z,33.39
2019-04-19T14:25:13.624Z,34.19
2019-04-19T14:26:13.530Z,33.49
2019-04-19T14:27:13.534Z,32.81
2019-04-19T14:28:13.668Z,32.71
2019-04-19T14:29:13.547Z,32.14
2019-04-19T14:30:13.553Z,32.52
2019-04-19T14:31:14.449Z,32.33
2019-04-19T14:32:13.629Z,32.33
2019-04-19T14:33:14.771Z,32.71
2019-04-19T14:34:13.573Z,32.82
2019-04-19T14:35:14.131Z,33.99
2019-04-19T14:36:13.795Z,33.31
2019-04-19T14:37:14.506Z,33.80
2019-04-19T14:38:13.940Z,34.19
2019-04-19T14:39:13.606Z,34.47
2019-04-19T14:40:13.607Z,34.67
2019-04-19T14:41:13.636Z,34.67
2019-04-19T14:42:13.818Z,35.27
2019-04-19T14:43:14.523Z,34.59
2019-04-19T14:44:13.630Z,33.62
2019-04-19T14:45:14.257Z,33.91
2019-04-19T14:46:14.415Z,34.57
2019-04-19T14:47:14.798Z,34.57
2019-04-19T14:48:16.663Z,34.67
2019-04-19T14:49:13.660Z,34.27
2019-04-19T14:50:14.750Z,35.23
2019-04-19T14:51:19.610Z,34.84
2019-04-19T14:52:14.037Z,35.04
2019-04-19T14:53:14.279Z,35.52
2019-04-19T14:54:14.773Z,35.83
2019-04-19T14:55:13.783Z,34.96
2019-04-19T14:56:14.961Z,34.47
2019-04-19T14:57:13.708Z,34.57
2019-04-19T14:58:13.714Z,34.94
2019-04-19T14:59:13.782Z,35.81
2019-04-19T15:00:14.786Z,34.36
2019-04-19T15:01:14.980Z,34.55
2019-04-19T15:02:15.031Z,33.97
2019-04-19T15:03:14.676Z,34.84
2019-04-19T15:04:14.907Z,34.86
2019-04-19T15:05:13.811Z,34.09
2019-04-19T15:06:13.757Z,34.38
2019-04-19T15:07:14.511Z,33.99
2019-04-19T15:08:14.675Z,34.47
2019-04-19T15:09:13.775Z,35.15
2019-04-19T15:10:13.782Z,34.39
2019-04-19T15:11:13.819Z,34.47
2019-04-19T15:12:13.791Z,33.99
2019-04-19T15:13:14.679Z,34.57
2019-04-19T15:14:14.470Z,34.36
2019-04-19T15:15:14.589Z,34.75
2019-04-19T15:16:14.999Z,35.42
2019-04-19T15:17:13.824Z,35.33
2019-04-19T15:18:13.834Z,35.33
2019-04-19T15:19:14.484Z,35.02
2019-04-19T15:20:13.986Z,34.83
2019-04-19T15:21:16.965Z,35.70
2019-04-19T15:22:14.527Z,35.81
2019-04-19T15:23:14.242Z,35.52
2019-04-19T15:24:14.724Z,34.77
2019-04-19T15:25:14.920Z,35.35
2019-04-19T15:26:13.874Z,35.15
2019-04-19T15:27:14.749Z,34.38
2019-04-19T15:28:14.978Z,34.38
2019-04-19T15:29:13.890Z,34.28
2019-04-19T15:30:14.884Z,33.80
2019-04-19T15:31:14.302Z,35.41
2019-04-19T15:32:14.661Z,35.33
2019-04-19T15:33:14.312Z,35.60
2019-04-19T15:34:13.941Z,35.23
2019-04-19T15:35:13.929Z,35.70
2019-04-19T15:36:13.930Z,35.42
2019-04-19T15:37:13.938Z,34.27
2019-04-19T15:38:14.036Z,33.86
2019-04-19T15:39:13.950Z,33.29
2019-04-19T15:40:14.051Z,33.01
2019-04-19T15:41:14.299Z,33.01
2019-04-19T15:42:14.089Z,33.97
2019-04-19T15:43:14.948Z,34.05
2019-04-19T15:44:14.761Z,34.15
2019-04-19T15:45:14.352Z,33.37
2019-04-19T15:46:13.990Z,33.76
2019-04-19T15:47:14.726Z,34.25
2019-04-19T15:48:26.226Z,34.75
2019-04-19T15:49:14.007Z,34.63
2019-04-19T15:50:14.012Z,35.21
2019-04-19T15:51:22.034Z,35.70
2019-04-19T15:52:14.322Z,35.02
2019-04-19T15:53:14.029Z,35.41
2019-04-19T15:54:14.235Z,35.41
2019-04-19T15:55:14.298Z,35.50
2019-04-19T15:56:14.555Z,35.13
2019-04-19T15:57:14.276Z,35.23
2019-04-19T15:58:14.703Z,34.36
2019-04-19T15:59:15.324Z,34.84
2019-04-19T16:00:14.165Z,34.84
2019-04-19T16:01:14.412Z,35.62
2019-04-19T16:02:14.079Z,36.10
2019-04-19T16:03:14.086Z,35.81
2019-04-19T16:04:14.193Z,35.42
2019-04-19T16:05:14.096Z,35.80
2019-04-19T16:06:14.186Z,36.18
2019-04-19T16:07:14.355Z,35.70
2019-04-19T16:08:14.115Z,36.08
2019-04-19T16:09:15.099Z,35.80
2019-04-19T16:10:16.634Z,36.08
2019-04-19T16:11:14.131Z,36.86
2019-04-19T16:12:15.427Z,36.66
2019-04-19T16:13:14.141Z,37.05
2019-04-19T16:14:15.264Z,36.76
2019-04-19T16:15:14.153Z,37.44
2019-04-19T16:16:14.384Z,36.38
2019-04-19T16:17:15.635Z,36.38
2019-04-19T16:18:14.179Z,36.38
2019-04-19T16:19:14.368Z,36.18
2019-04-19T16:20:15.432Z,36.38
2019-04-19T16:21:23.568Z,36.38
2019-04-19T16:22:14.353Z,36.28
2019-04-19T16:23:14.268Z,37.05
2019-04-19T16:24:15.330Z,36.96
2019-04-19T16:25:14.952Z,37.42
2019-04-19T16:26:15.106Z,36.94
2019-04-19T16:27:15.295Z,36.84
2019-04-19T16:28:15.107Z,36.86
2019-04-19T16:29:24.378Z,36.28
2019-04-19T16:30:14.318Z,36.28
2019-04-19T16:31:14.684Z,36.47
2019-04-19T16:32:14.765Z,36.57
2019-04-19T16:33:15.567Z,36.66
2019-04-19T16:34:16.869Z,36.76
2019-04-19T16:35:14.264Z,36.96
2019-04-19T16:36:14.730Z,37.44
2019-04-19T16:37:14.804Z,37.82
2019-04-19T16:38:14.279Z,37.34
2019-04-19T16:39:14.962Z,38.29
2019-04-19T16:40:14.320Z,38.02
2019-04-19T16:41:14.848Z,37.62
2019-04-19T16:42:14.298Z,37.23
2019-04-19T16:43:15.342Z,36.74
2019-04-19T16:44:15.623Z,37.52
2019-04-19T16:45:14.316Z,36.94
2019-04-19T16:46:19.401Z,37.44
2019-04-19T16:47:15.271Z,37.54
2019-04-19T16:48:14.701Z,36.96
2019-04-19T16:49:14.335Z,36.28
2019-04-19T16:50:14.483Z,36.28
2019-04-19T16:51:14.685Z,36.65
2019-04-19T16:52:16.042Z,36.65
2019-04-19T16:53:15.492Z,36.36
2019-04-19T16:54:14.361Z,36.84
2019-04-19T16:55:15.662Z,36.36
2019-04-19T16:56:15.436Z,36.66
2019-04-19T16:57:19.861Z,36.94
2019-04-19T16:58:14.730Z,37.05
2019-04-19T16:59:14.387Z,36.76
2019-04-19T17:00:14.476Z,36.65
2019-04-19T17:01:14.645Z,36.65
2019-04-19T17:02:15.155Z,36.74
2019-04-19T17:03:14.419Z,36.94
2019-04-19T17:04:15.537Z,36.55
2019-04-19T17:05:14.862Z,36.36
2019-04-19T17:06:14.854Z,37.04
2019-04-19T17:07:14.534Z,37.79
2019-04-19T17:08:15.556Z,36.92
2019-04-19T17:09:15.148Z,36.92
2019-04-19T17:10:15.677Z,37.40
2019-04-19T17:11:15.414Z,37.02
2019-04-19T17:12:14.500Z,37.30
2019-04-19T17:13:14.970Z,37.70
2019-04-19T17:14:14.712Z,37.98
2019-04-19T17:15:14.953Z,38.08
2019-04-19T17:16:15.554Z,37.40
2019-04-19T17:17:15.129Z,37.70
2019-04-19T17:18:14.583Z,37.88
2019-04-19T17:19:14.934Z,37.50
2019-04-19T17:20:15.102Z,37.79
2019-04-19T17:21:15.505Z,38.08
2019-04-19T17:22:18.858Z,38.18
2019-04-19T17:23:14.736Z,38.08
2019-04-19T17:24:14.513Z,38.35
2019-04-19T17:25:14.902Z,38.74
2019-04-19T17:26:15.109Z,38.83
2019-04-19T17:27:14.529Z,38.83
2019-04-19T17:28:14.750Z,38.93
2019-04-19T17:29:14.931Z,39.03
2019-04-19T17:30:14.940Z,38.74
2019-04-19T17:31:14.547Z,39.32
2019-04-19T17:32:14.566Z,39.41
2019-04-19T17:33:14.676Z,39.51
2019-04-19T17:34:14.563Z,40.47
2019-04-19T17:35:14.566Z,39.99
2019-04-19T17:36:14.572Z,39.92
2019-04-19T17:37:15.954Z,39.90
2019-04-19T17:38:26.920Z,39.32
2019-04-19T17:39:14.851Z,39.51
2019-04-19T17:40:14.665Z,39.70
2019-04-19T17:41:14.605Z,39.70
2019-04-19T17:42:14.757Z,39.99
2019-04-19T17:43:14.605Z,40.19
2019-04-19T17:44:15.510Z,40.67
2019-04-19T17:45:15.602Z,40.47
2019-04-19T17:46:14.720Z,40.67
2019-04-19T17:47:17.009Z,40.86
2019-04-19T17:48:14.632Z,40.86
2019-04-19T17:49:14.837Z,40.55
2019-04-19T17:50:14.639Z,41.63
2019-04-19T17:51:15.693Z,41.93
2019-04-19T17:52:23.045Z,41.03
2019-04-19T17:53:14.979Z,40.55
2019-04-19T17:54:18.655Z,40.75
2019-04-19T17:55:25.091Z,40.84
2019-04-19T17:56:15.281Z,41.52
2019-04-19T17:57:15.403Z,41.71
2019-04-19T17:58:15.202Z,42.19
2019-04-19T17:59:16.852Z,42.39
2019-04-19T18:00:14.685Z,42.46
2019-04-19T18:01:15.884Z,43.04
2019-04-19T18:02:14.976Z,43.43
2019-04-19T18:03:15.235Z,43.43
2019-04-19T18:04:16.574Z,43.70
2019-04-19T18:05:15.890Z,43.98
2019-04-19T18:06:14.726Z,44.18
2019-04-19T18:07:15.353Z,44.18
2019-04-19T18:08:21.653Z,43.70
2019-04-19T18:09:17.663Z,44.35
2019-04-19T18:10:18.135Z,44.93
2019-04-19T18:11:20.950Z,45.12
2019-04-19T18:12:14.740Z,45.41
2019-04-19T18:13:15.127Z,46.06